Garwin, IA (50632)

1:41 AM CDT on July 24, 2016 (GMT -0500)
Green Mountain | | Change Station

Elev 997 ft 42.12 °N, 92.83 °W | Updated 14 minutes ago

Clear
Clear
78.6 °F
Feels Like 82 °F
N
10.9
Wind Variable Wind from South

Today
High -- | Low -- °F
--% Chance of Precip.
Yesterday
High -- | Low -- °F
Precip. -- in
Pressure 29.81 in
Visibility 10.0 miles
Clouds Clear
Heat Index 82 °F
Dew Point 73 °F
Humidity 83%
Rainfall 0.00 in
Snow Depth Not available.
5:56 AM 8:37 PM
Waning Gibbous, 79% visible
METAR KMIW 240553Z AUTO 19008KT 10SM CLR 27/25 A2983 RMK AO2 SLP093 T02670250 10311 20267 403170239 51006
Pressure 29.81 in
Visibility 10.0 miles
Clouds Clear
Heat Index 82 °F
Dew Point 73 °F
Humidity 83%
Rainfall 0.00 in
Snow Depth Not available.
5:56 AM 8:37 PM
Waning Gibbous, 79% visible
METAR KMIW 240553Z AUTO 19008KT 10SM CLR 27/25 A2983 RMK AO2 SLP093 T02670250 10311 20267 403170239 51006

10-Day Weather Forecast

Almanac

Astronomy

Jul. 24, 2016 Rise Set
Actual Time
Civil Twilight
Nautical Twilight
Astronomical Twilight
Moon
Length of Visible Light
Length of Day
Tomorrow will be .
, % of the Moon is Illuminated

Today's Extremes

State Highs State Lows

Community

WunderPhotos

Upload Photos

1,927,038 photos uploaded!

WunderBlog® & News

Nearby

Air Quality

  Air Quality AQ Index Pollutant
Not available.

Snow Depth

Station Depth Elevation

Earthquake Activity

City Distance Mag. Time & Date
Minimum magnitude displayed is 2.5.

Coastal Water Temperatures

Place Temperature

Stations

Nearby Weather Stations

Station Location Temp. Windchill Dew Point Humidity Wind Precip. Elev Updated Type
                   

Watches & Warnings

There are currently no watches in effect.